createdAt,value
2023-12-13T00:00:09.264Z,49.40
2023-12-13T00:03:12.603Z,50.75
2023-12-13T00:06:16.271Z,53.38
2023-12-13T00:09:19.151Z,54.03
2023-12-13T00:12:22.672Z,53.65
2023-12-13T00:15:25.651Z,53.67
2023-12-13T00:18:29.533Z,54.55
2023-12-13T00:21:32.945Z,54.17
2023-12-13T00:24:36.350Z,56.55
2023-12-13T00:27:39.567Z,56.05
2023-12-13T00:30:43.278Z,53.75
2023-12-13T00:33:46.402Z,55.33
2023-12-13T00:36:50.150Z,56.30
2023-12-13T00:39:53.960Z,57.17
2023-12-13T00:42:57.670Z,56.72
2023-12-13T00:46:01.011Z,57.90
2023-12-13T00:49:04.559Z,55.33
2023-12-13T00:52:08.183Z,55.90
2023-12-13T00:55:11.794Z,54.83
2023-12-13T00:58:15.214Z,55.40
2023-12-13T01:01:20.210Z,53.17
2023-12-13T01:04:23.898Z,53.17
2023-12-13T01:07:27.740Z,53.53
2023-12-13T01:10:30.523Z,52.95
2023-12-13T01:13:34.755Z,53.22
2023-12-13T01:16:38.299Z,52.15
2023-12-13T01:19:42.149Z,53.45
2023-12-13T01:22:45.485Z,52.35
2023-12-13T01:25:48.906Z,54.20
2023-12-13T01:28:52.245Z,54.67
2023-12-13T01:31:55.764Z,53.38
2023-12-13T01:34:59.117Z,52.35
2023-12-13T01:38:02.715Z,52.92
2023-12-13T01:41:12.435Z,53.75
2023-12-13T01:44:18.017Z,49.83
2023-12-13T01:47:21.615Z,55.05
2023-12-13T01:50:27.084Z,53.55
2023-12-13T01:53:31.882Z,54.95
2023-12-13T01:56:35.589Z,56.45
2023-12-13T01:59:39.404Z,55.20
2023-12-13T02:02:43.246Z,55.45
2023-12-13T02:05:46.472Z,54.28
2023-12-13T02:08:49.802Z,53.42
2023-12-13T02:11:53.311Z,54.40
2023-12-13T02:14:57.112Z,52.40
2023-12-13T02:18:01.103Z,54.90
2023-12-13T02:21:04.838Z,53.55
2023-12-13T02:24:10.180Z,52.80
2023-12-13T02:27:13.980Z,53.45
2023-12-13T02:30:17.773Z,54.13
2023-12-13T02:33:27.475Z,50.70
2023-12-13T02:36:31.035Z,51.15
2023-12-13T02:39:34.232Z,51.30
2023-12-13T02:42:37.521Z,51.83
2023-12-13T02:45:40.715Z,50.22
2023-12-13T02:48:44.288Z,50.80
2023-12-13T02:51:47.922Z,49.67
2023-12-13T02:54:51.419Z,50.45
2023-12-13T02:57:54.818Z,49.10
2023-12-13T03:00:58.077Z,49.25
2023-12-13T03:04:03.762Z,48.70
2023-12-13T03:07:07.365Z,50.00
2023-12-13T03:10:10.732Z,48.58
2023-12-13T03:13:14.184Z,49.08
2023-12-13T03:16:17.275Z,51.90
2023-12-13T03:19:20.297Z,51.47
2023-12-13T03:22:24.048Z,50.45
2023-12-13T03:25:27.366Z,52.40
2023-12-13T03:28:31.009Z,53.10
2023-12-13T03:31:34.597Z,50.67
2023-12-13T03:34:38.183Z,50.40
2023-12-13T03:37:41.804Z,49.85
2023-12-13T03:40:44.893Z,49.22
2023-12-13T03:43:48.473Z,47.00
2023-12-13T03:46:51.738Z,47.45
2023-12-13T03:49:54.655Z,46.70
2023-12-13T03:52:58.332Z,43.53
2023-12-13T03:56:02.046Z,45.25
2023-12-13T03:59:05.240Z,45.88
2023-12-13T04:02:09.648Z,44.22
2023-12-13T04:05:13.319Z,44.22
2023-12-13T04:08:16.865Z,45.17
2023-12-13T04:11:19.810Z,45.92
2023-12-13T04:14:22.842Z,41.28
2023-12-13T04:17:26.880Z,40.53
2023-12-13T04:20:30.356Z,38.20
2023-12-13T04:23:33.652Z,36.63
2023-12-13T04:26:37.459Z,35.28
2023-12-13T04:29:41.061Z,38.55
2023-12-13T04:32:44.618Z,37.03
2023-12-13T04:35:48.267Z,38.17
2023-12-13T04:38:51.666Z,41.47
2023-12-13T04:41:55.177Z,40.70
2023-12-13T04:44:58.668Z,38.92
2023-12-13T04:48:02.427Z,37.65
2023-12-13T04:51:06.096Z,37.65
2023-12-13T04:54:09.393Z,38.65
2023-12-13T04:57:12.770Z,37.85
2023-12-13T05:00:16.499Z,34.90
2023-12-13T05:03:19.605Z,34.25
2023-12-13T05:06:22.660Z,32.25
2023-12-13T05:09:26.067Z,31.58
2023-12-13T05:12:28.735Z,35.65
2023-12-13T05:15:32.150Z,34.92
2023-12-13T05:18:36.386Z,34.80
2023-12-13T05:21:39.445Z,37.97
2023-12-13T05:24:42.636Z,35.28
2023-12-13T05:27:46.339Z,35.45
2023-12-13T05:30:49.813Z,34.13
2023-12-13T05:33:52.889Z,32.28
2023-12-13T05:36:56.330Z,33.28
2023-12-13T05:39:59.734Z,45.75
2023-12-13T05:43:03.634Z,43.03
2023-12-13T05:46:09.491Z,43.92
2023-12-13T05:49:13.389Z,45.50
2023-12-13T05:52:16.617Z,40.95
2023-12-13T05:55:19.761Z,36.05
2023-12-13T05:58:22.815Z,34.47
2023-12-13T06:01:26.253Z,33.70
2023-12-13T06:04:30.129Z,35.22
2023-12-13T06:07:34.320Z,34.05
2023-12-13T06:10:37.548Z,33.97
2023-12-13T06:13:41.036Z,34.80
2023-12-13T06:16:44.153Z,31.67
2023-12-13T06:19:47.858Z,31.15
2023-12-13T06:22:51.330Z,26.00
2023-12-13T06:25:54.829Z,22.13
2023-12-13T06:28:58.243Z,20.50
2023-12-13T06:32:01.493Z,21.33
2023-12-13T06:35:05.275Z,20.73
2023-12-13T06:38:08.782Z,21.75
2023-12-13T06:41:11.682Z,23.05
2023-12-13T06:44:15.212Z,21.27
2023-12-13T06:47:19.107Z,21.50
2023-12-13T06:50:22.394Z,22.23
2023-12-13T06:53:25.788Z,22.05
2023-12-13T06:56:29.616Z,23.75
2023-12-13T06:59:32.997Z,24.90
2023-12-13T07:02:38.117Z,25.48
2023-12-13T07:05:41.366Z,26.35
2023-12-13T07:08:44.730Z,26.33
2023-12-13T07:11:48.121Z,25.55
2023-12-13T07:14:51.421Z,25.45
2023-12-13T07:17:55.464Z,25.65
2023-12-13T07:20:59.137Z,26.65
2023-12-13T07:24:02.638Z,26.67
2023-12-13T07:27:06.036Z,27.83
2023-12-13T07:30:09.830Z,26.25
2023-12-13T07:33:14.104Z,26.65
2023-12-13T07:36:18.375Z,27.13
2023-12-13T07:39:21.580Z,28.27
2023-12-13T07:42:24.776Z,30.15
2023-12-13T07:45:27.853Z,26.48
2023-12-13T07:48:31.450Z,26.27
2023-12-13T07:51:36.081Z,26.05
2023-12-13T07:54:39.177Z,26.70
2023-12-13T07:57:42.570Z,27.27
2023-12-13T08:00:45.688Z,28.13
2023-12-13T08:03:49.469Z,30.13
2023-12-13T08:06:54.093Z,31.98
2023-12-13T08:10:00.888Z,31.75
2023-12-13T08:13:04.925Z,34.20
2023-12-13T08:16:08.283Z,30.48
2023-12-13T08:19:11.712Z,28.17
2023-12-13T08:22:14.705Z,29.45
2023-12-13T08:25:18.455Z,29.00
2023-12-13T08:28:21.491Z,28.10
2023-12-13T08:31:27.459Z,27.40
2023-12-13T08:34:31.170Z,26.13
2023-12-13T08:37:34.453Z,32.47
2023-12-13T08:40:37.954Z,34.50
2023-12-13T08:43:41.065Z,37.10
2023-12-13T08:46:45.160Z,30.75
2023-12-13T08:49:48.870Z,28.67
2023-12-13T08:52:53.103Z,29.95
2023-12-13T08:55:56.838Z,31.23
2023-12-13T08:59:00.084Z,30.58
2023-12-13T09:02:03.485Z,29.50
2023-12-13T09:05:07.267Z,28.10
2023-12-13T09:08:10.775Z,31.08
2023-12-13T09:11:14.168Z,30.48
2023-12-13T09:14:18.276Z,29.98
2023-12-13T09:17:21.880Z,29.88
2023-12-13T09:20:25.696Z,44.05
2023-12-13T09:23:29.496Z,45.15
2023-12-13T09:26:33.516Z,34.60
2023-12-13T09:29:36.396Z,27.63
2023-12-13T09:32:46.270Z,29.95
2023-12-13T09:35:51.586Z,27.83
2023-12-13T09:38:55.086Z,27.52
2023-12-13T09:42:07.791Z,25.15
2023-12-13T09:45:22.899Z,24.60
2023-12-13T09:48:29.213Z,23.67
2023-12-13T09:51:34.230Z,22.08
2023-12-13T09:54:40.760Z,22.55
2023-12-13T09:57:43.953Z,22.25
2023-12-13T10:00:47.384Z,21.85
2023-12-13T10:03:50.530Z,22.67
2023-12-13T10:06:54.236Z,23.63
2023-12-13T10:09:57.739Z,24.23
2023-12-13T10:13:03.035Z,24.70
2023-12-13T10:16:14.864Z,23.58
2023-12-13T10:19:18.250Z,21.42
2023-12-13T10:22:21.497Z,20.92
2023-12-13T10:25:25.510Z,21.15
2023-12-13T10:28:28.612Z,20.98
2023-12-13T10:31:35.267Z,22.52
2023-12-13T10:34:39.292Z,23.83
2023-12-13T10:37:44.061Z,23.58
2023-12-13T10:40:47.862Z,23.17
2023-12-13T10:43:53.503Z,24.38
2023-12-13T10:46:58.581Z,24.67
2023-12-13T10:50:03.725Z,25.98
2023-12-13T10:53:09.067Z,23.63
2023-12-13T10:56:13.699Z,24.63
2023-12-13T10:59:18.020Z,22.42
2023-12-13T11:02:22.841Z,22.42
2023-12-13T11:05:26.651Z,22.10
2023-12-13T11:08:39.576Z,22.50
2023-12-13T11:11:46.493Z,23.13
2023-12-13T11:14:51.972Z,21.75
2023-12-13T11:17:57.433Z,25.33
2023-12-13T11:21:06.885Z,23.50
2023-12-13T11:24:10.487Z,27.75
2023-12-13T11:27:16.758Z,24.83
2023-12-13T11:30:21.419Z,27.58
2023-12-13T11:33:24.974Z,33.42
2023-12-13T11:36:28.505Z,25.60
2023-12-13T11:39:32.810Z,28.83
2023-12-13T11:42:36.402Z,22.77
2023-12-13T11:45:48.829Z,21.77
2023-12-13T11:48:53.486Z,24.08
2023-12-13T11:51:57.580Z,35.08
2023-12-13T11:55:01.805Z,25.90
2023-12-13T11:58:05.890Z,23.80
2023-12-13T12:01:14.496Z,27.20
2023-12-13T12:04:21.236Z,29.15
2023-12-13T12:07:24.397Z,25.13
2023-12-13T12:10:27.740Z,24.23
2023-12-13T12:13:30.990Z,18.45
2023-12-13T12:16:34.710Z,18.92
2023-12-13T12:19:39.620Z,18.38
2023-12-13T12:22:42.732Z,18.52
2023-12-13T12:25:46.537Z,18.63
2023-12-13T12:28:50.362Z,18.77
2023-12-13T12:31:53.350Z,19.60
2023-12-13T12:34:57.074Z,18.13
2023-12-13T12:38:00.544Z,18.98
2023-12-13T12:41:04.253Z,18.58
2023-12-13T12:44:07.427Z,19.17
2023-12-13T12:47:11.132Z,17.83
2023-12-13T12:50:15.315Z,17.10
2023-12-13T12:53:19.148Z,20.60
2023-12-13T12:56:22.021Z,28.30
2023-12-13T12:59:25.422Z,31.88
2023-12-13T13:02:29.238Z,33.95
2023-12-13T13:05:32.935Z,54.63
2023-12-13T13:08:37.464Z,72.07
2023-12-13T13:11:42.697Z,51.03
2023-12-13T13:14:46.205Z,35.50
2023-12-13T13:17:49.738Z,33.63
2023-12-13T13:20:53.655Z,36.83
2023-12-13T13:23:57.323Z,49.25
2023-12-13T13:27:00.716Z,46.78
2023-12-13T13:30:05.281Z,23.92
2023-12-13T13:33:08.941Z,24.58
2023-12-13T13:36:15.744Z,22.95
2023-12-13T13:39:18.919Z,23.67
2023-12-13T13:42:23.028Z,34.78
2023-12-13T13:45:26.433Z,26.88
2023-12-13T13:48:29.684Z,24.30
2023-12-13T13:51:33.328Z,24.70
2023-12-13T13:54:36.758Z,26.90
2023-12-13T13:57:40.434Z,27.50
2023-12-13T14:00:43.520Z,27.17
2023-12-13T14:03:46.916Z,26.98
2023-12-13T14:06:50.025Z,31.08
2023-12-13T14:09:53.718Z,29.38
2023-12-13T14:12:56.806Z,30.30
2023-12-13T14:15:59.802Z,32.55
2023-12-13T14:19:06.933Z,33.03
2023-12-13T14:22:10.573Z,35.47
2023-12-13T14:25:14.602Z,38.50
2023-12-13T14:28:18.106Z,42.00
2023-12-13T14:31:21.836Z,41.03
2023-12-13T14:34:25.439Z,40.65
2023-12-13T14:37:29.038Z,39.83
2023-12-13T14:40:32.547Z,40.67
2023-12-13T14:43:36.134Z,41.22
2023-12-13T14:46:39.766Z,42.83
2023-12-13T14:49:43.110Z,43.13
2023-12-13T14:52:46.742Z,44.90
2023-12-13T14:55:50.660Z,43.10
2023-12-13T14:58:54.092Z,42.10
2023-12-13T15:01:57.368Z,44.63
2023-12-13T15:05:01.048Z,44.80
2023-12-13T15:08:08.207Z,42.45
2023-12-13T15:11:11.464Z,42.60
2023-12-13T15:14:16.447Z,41.08
2023-12-13T15:17:19.837Z,41.65
2023-12-13T15:20:23.670Z,43.47
2023-12-13T15:23:26.760Z,39.10
2023-12-13T15:26:30.379Z,40.45
2023-12-13T15:29:34.043Z,38.72
2023-12-13T15:32:37.918Z,44.05
2023-12-13T15:35:42.271Z,47.70
2023-12-13T15:38:45.361Z,47.90
2023-12-13T15:41:48.660Z,52.22
2023-12-13T15:44:51.749Z,50.45
2023-12-13T15:47:55.177Z,49.05
2023-12-13T15:50:58.443Z,46.83
2023-12-13T15:54:01.844Z,46.05
2023-12-13T15:57:05.552Z,52.25
2023-12-13T16:00:10.501Z,48.63
2023-12-13T16:03:13.599Z,47.88
2023-12-13T16:06:17.003Z,48.92
2023-12-13T16:09:20.265Z,45.47
2023-12-13T16:12:24.259Z,42.67
2023-12-13T16:15:29.124Z,42.72
2023-12-13T16:18:32.693Z,40.13
2023-12-13T16:21:36.212Z,40.28
2023-12-13T16:39:54.580Z,59.55
2023-12-13T16:42:59.669Z,51.53
2023-12-13T16:46:02.203Z,44.28
2023-12-13T16:49:04.506Z,38.17
2023-12-13T16:52:06.873Z,34.10
2023-12-13T16:55:10.136Z,42.20
2023-12-13T16:58:12.436Z,38.00
2023-12-13T17:13:18.496Z,40.55
2023-12-13T17:16:20.960Z,32.55
2023-12-13T17:19:23.312Z,35.90
2023-12-13T17:22:25.816Z,30.45
2023-12-13T17:25:28.031Z,29.17
2023-12-13T17:28:30.215Z,28.60
2023-12-13T17:31:32.351Z,27.80
2023-12-13T17:34:35.182Z,32.17
2023-12-13T17:37:37.549Z,32.03
2023-12-13T17:40:40.085Z,28.88
2023-12-13T17:43:42.593Z,26.00
2023-12-13T17:46:44.856Z,23.35
2023-12-13T17:49:47.289Z,24.27
2023-12-13T17:52:49.648Z,23.45
2023-12-13T17:55:51.806Z,23.40
2023-12-13T17:58:54.200Z,23.15
2023-12-13T18:01:56.527Z,21.30
2023-12-13T18:05:00.993Z,20.77
2023-12-13T18:08:03.517Z,25.45
2023-12-13T18:11:06.358Z,26.70
2023-12-13T18:14:08.607Z,36.53
2023-12-13T18:17:10.760Z,32.28
2023-12-13T18:20:13.387Z,28.25
2023-12-13T18:23:16.248Z,25.13
2023-12-13T18:26:19.069Z,32.63
2023-12-13T18:29:21.526Z,27.83
2023-12-13T18:32:24.157Z,23.67
2023-12-13T18:35:27.178Z,22.65
2023-12-13T18:38:33.153Z,25.15
2023-12-13T18:41:35.659Z,24.50
2023-12-13T18:44:38.315Z,24.48
2023-12-13T18:47:44.071Z,29.05
2023-12-13T18:50:47.287Z,18.00
2023-12-13T18:53:49.884Z,17.80
2023-12-13T18:56:54.924Z,14.65
2023-12-13T18:59:58.059Z,15.85
2023-12-13T19:03:00.956Z,14.68
2023-12-13T19:06:04.218Z,18.17
2023-12-13T19:09:06.871Z,15.85
2023-12-13T19:12:09.703Z,14.38
2023-12-13T19:15:12.440Z,14.85
2023-12-13T19:18:16.303Z,15.60
2023-12-13T19:21:19.221Z,14.65
2023-12-13T19:24:22.148Z,17.08
2023-12-13T19:27:25.075Z,20.98
2023-12-13T19:30:27.948Z,18.50
2023-12-13T19:33:30.971Z,19.50
2023-12-13T19:36:34.124Z,20.42
2023-12-13T19:39:37.193Z,23.17
2023-12-13T19:42:40.276Z,23.83
2023-12-13T19:45:43.385Z,24.42
2023-12-13T19:48:46.838Z,22.52
2023-12-13T19:51:49.850Z,22.80
2023-12-13T19:54:53.155Z,24.88
2023-12-13T19:57:56.062Z,26.40
2023-12-13T20:01:00.430Z,25.48
2023-12-13T20:04:04.741Z,27.42
2023-12-13T20:07:07.823Z,27.65
2023-12-13T20:10:13.108Z,27.42
2023-12-13T20:13:16.349Z,28.60
2023-12-13T20:16:19.898Z,29.30
2023-12-13T20:19:23.205Z,28.92
2023-12-13T20:22:26.434Z,26.55
2023-12-13T20:25:33.565Z,27.38
2023-12-13T20:28:38.295Z,27.65
2023-12-13T20:31:41.280Z,27.13
2023-12-13T20:34:44.247Z,26.95
2023-12-13T20:37:47.328Z,27.65
2023-12-13T20:40:51.216Z,27.08
2023-12-13T20:43:54.306Z,26.20
2023-12-13T20:46:57.265Z,26.83
2023-12-13T20:50:01.319Z,28.10
2023-12-13T20:53:04.668Z,27.25
2023-12-13T20:56:08.284Z,26.02
2023-12-13T20:59:11.415Z,28.48
2023-12-13T21:02:13.875Z,26.92
2023-12-13T21:05:16.074Z,25.40
2023-12-13T21:08:18.547Z,27.92
2023-12-13T21:11:21.118Z,23.92
2023-12-13T21:14:23.227Z,24.75
2023-12-13T21:17:25.708Z,27.75
2023-12-13T21:20:28.333Z,26.33
2023-12-13T21:23:30.721Z,26.13
2023-12-13T21:26:36.247Z,31.00
2023-12-13T21:29:38.896Z,30.58
2023-12-13T21:32:41.394Z,30.77
2023-12-13T21:35:44.915Z,29.95
2023-12-13T21:38:48.607Z,31.13
2023-12-13T21:41:50.653Z,31.73
2023-12-13T21:44:52.987Z,33.97
2023-12-13T21:47:57.109Z,32.60
2023-12-13T21:50:59.746Z,28.30
2023-12-13T21:54:01.832Z,27.50
2023-12-13T21:57:04.119Z,27.23
2023-12-13T22:00:08.563Z,26.42
2023-12-13T22:03:11.861Z,27.83
2023-12-13T22:06:14.364Z,28.13
2023-12-13T22:09:17.894Z,29.45
2023-12-13T22:12:20.220Z,31.08
2023-12-13T22:15:22.312Z,34.47
2023-12-13T22:18:26.991Z,33.85
2023-12-13T22:21:29.590Z,37.90
2023-12-13T22:24:32.268Z,37.55
2023-12-13T22:27:35.108Z,45.08
2023-12-13T22:30:38.103Z,46.05
2023-12-13T22:33:40.596Z,41.58
2023-12-13T22:36:43.065Z,40.72
2023-12-13T22:39:45.317Z,44.72
2023-12-13T22:42:47.680Z,41.65
2023-12-13T22:45:50.026Z,38.15
2023-12-13T22:48:52.394Z,37.38
2023-12-13T22:52:19.055Z,31.92
2023-12-13T22:55:16.709Z,32.25
2023-12-13T22:58:18.974Z,32.55
2023-12-13T23:01:21.255Z,33.20
2023-12-13T23:04:23.631Z,34.00
2023-12-13T23:07:28.923Z,35.80
2023-12-13T23:10:31.426Z,37.00
2023-12-13T23:13:33.804Z,36.45
2023-12-13T23:16:38.189Z,35.53
2023-12-13T23:19:40.736Z,35.47
2023-12-13T23:22:43.391Z,33.08
2023-12-13T23:25:45.481Z,34.67
2023-12-13T23:28:48.018Z,33.33
2023-12-13T23:31:50.375Z,31.67
2023-12-13T23:34:52.927Z,32.28
2023-12-13T23:37:55.093Z,35.97
2023-12-13T23:40:57.533Z,33.38
2023-12-13T23:44:00.080Z,33.92
2023-12-13T23:47:02.532Z,32.20
2023-12-13T23:50:05.387Z,30.10
2023-12-13T23:53:07.871Z,32.47
2023-12-13T23:56:26.815Z,31.83
2023-12-13T23:59:29.229Z,29.50
